Time;durP1;ratioP1;P1;durP2;ratioP2;P2;SDS_P1;SDS_P2;PMS_P1;PMS_P2;Temp;Humidity;BMP_temperature;BMP_pressure;BME280_temperature;BME280_humidity;BME280_pressure;Samples;Min_cycle;Max_cycle;Signal;HPM_P1;HPM_P2
2023/02/13 00:01:23;;;;;;;21.77;8.37;;;8.90;99.90;;;;;;5095464;28;20462;-63
2023/02/13 00:03:50;;;;;;;15.97;8.10;;;8.80;99.90;;;;;;5096165;28;20569;-64
2023/02/13 00:06:17;;;;;;;20.87;9.43;;;8.80;99.90;;;;;;5095490;28;20446;-59
2023/02/13 00:08:44;;;;;;;17.97;8.77;;;8.80;99.90;;;;;;5095381;28;20493;-60
2023/02/13 00:11:11;;;;;;;15.10;7.43;;;8.70;99.90;;;;;;5094694;28;20481;-60
2023/02/13 00:13:37;;;;;;;13.63;7.00;;;8.80;99.90;;;;;;5090141;28;20501;-65
2023/02/13 00:16:06;;;;;;;18.43;7.37;;;8.70;99.90;;;;;;5091219;28;20454;-67
2023/02/13 00:18:35;;;;;;;20.67;7.53;;;8.70;99.90;;;;;;5090729;28;20513;-67
2023/02/13 00:21:05;;;;;;;13.57;6.20;;;8.70;99.90;;;;;;5090141;28;20974;-65
2023/02/13 00:23:35;;;;;;;10.80;6.17;;;8.80;99.90;;;;;;5090183;28;20442;-67
2023/02/13 00:26:08;;;;;;;11.17;6.17;;;8.70;99.90;;;;;;5094803;28;20461;-66
2023/02/13 00:28:35;;;;;;;11.23;6.03;;;8.80;99.90;;;;;;5093387;28;20430;-65
2023/02/13 00:31:06;;;;;;;11.23;5.47;;;8.80;99.90;;;;;;5091338;28;20462;-66
2023/02/13 00:33:33;;;;;;;12.80;4.93;;;8.80;99.90;;;;;;5091947;28;20430;-68
2023/02/13 00:36:10;;;;;;;16.87;5.53;;;8.70;99.90;;;;;;5091805;28;20465;-67
2023/02/13 00:38:38;;;;;;;12.03;6.13;;;8.70;99.90;;;;;;5090674;28;20528;-65
2023/02/13 00:41:06;;;;;;;11.00;6.13;;;8.80;99.90;;;;;;5090891;28;20459;-67
2023/02/13 00:43:33;;;;;;;11.93;4.73;;;8.80;99.90;;;;;;5091330;28;20450;-66
2023/02/13 00:46:00;;;;;;;11.60;5.30;;;8.80;99.90;;;;;;5091073;28;20942;-65
2023/02/13 00:48:30;;;;;;;12.43;4.73;;;8.80;99.90;;;;;;5091491;28;20438;-64
2023/02/13 00:50:57;;;;;;;9.33;4.30;;;8.80;99.90;;;;;;5093862;28;20462;-65
2023/02/13 00:53:25;;;;;;;6.17;3.80;;;8.80;99.90;;;;;;5093148;28;20461;-65
2023/02/13 00:55:52;;;;;;;8.30;3.80;;;8.80;99.90;;;;;;5093226;28;20446;-65
2023/02/13 00:58:20;;;;;;;6.73;3.60;;;8.80;99.90;;;;;;5093492;28;20481;-65
2023/02/13 01:00:47;;;;;;;3.70;2.43;;;8.70;99.90;;;;;;5094004;28;20470;-65
2023/02/13 01:03:15;;;;;;;4.07;2.37;;;8.70;99.90;;;;;;5092551;28;20473;-67
2023/02/13 01:05:44;;;;;;;9.27;2.50;;;8.70;99.90;;;;;;5092991;28;20469;-66
2023/02/13 01:08:11;;;;;;;5.40;2.33;;;8.60;99.90;;;;;;5093161;28;20494;-65
2023/02/13 01:10:39;;;;;;;4.63;2.27;;;8.60;99.90;;;;;;5093548;28;20438;-67
2023/02/13 01:13:06;;;;;;;5.47;2.43;;;8.60;99.90;;;;;;5093076;28;20463;-65
2023/02/13 01:15:36;;;;;;;6.50;2.50;;;8.60;99.90;;;;;;5096765;28;20794;-66
2023/02/13 01:18:03;;;;;;;7.33;3.30;;;8.60;99.90;;;;;;5097457;28;20935;-64
2023/02/13 01:20:30;;;;;;;4.67;1.70;;;8.60;99.90;;;;;;5097108;28;20462;-66
2023/02/13 01:22:59;;;;;;;3.40;2.47;;;8.60;99.90;;;;;;5096757;28;20453;-65
2023/02/13 01:25:27;;;;;;;9.23;2.60;;;8.60;99.90;;;;;;5096653;28;20442;-67
2023/02/13 01:27:54;;;;;;;3.93;2.50;;;8.60;99.90;;;;;;5096750;28;20985;-65
2023/02/13 01:30:21;;;;;;;4.03;2.10;;;8.70;99.90;;;;;;5098207;28;20439;-66
2023/02/13 01:32:48;;;;;;;2.77;1.77;;;8.70;99.90;;;;;;5096362;28;20470;-64
2023/02/13 01:35:15;;;;;;;4.27;2.20;;;8.70;99.90;;;;;;5096521;28;20426;-68
2023/02/13 01:37:43;;;;;;;3.10;1.60;;;8.70;99.90;;;;;;5096373;28;20478;-67
2023/02/13 01:40:17;;;;;;;2.23;1.57;;;8.70;99.90;;;;;;5096400;28;20485;-67
2023/02/13 01:42:44;;;;;;;3.50;1.87;;;8.70;99.90;;;;;;5099612;28;20445;-64
2023/02/13 01:45:23;;;;;;;2.70;1.63;;;8.70;99.90;;;;;;5098986;28;20465;-65
2023/02/13 01:47:54;;;;;;;3.20;1.90;;;8.70;99.90;;;;;;5095847;28;20453;-65
2023/02/13 01:50:25;;;;;;;3.43;1.80;;;8.70;99.90;;;;;;5095310;28;20470;-66
2023/02/13 01:52:56;;;;;;;2.50;1.50;;;8.70;99.90;;;;;;5098384;28;20448;-62
2023/02/13 01:55:26;;;;;;;4.60;2.57;;;8.70;99.90;;;;;;5097270;28;20454;-65
2023/02/13 01:57:58;;;;;;;5.67;2.43;;;8.70;99.90;;;;;;5097153;28;20490;-67
2023/02/13 02:00:25;;;;;;;4.27;1.90;;;8.70;99.90;;;;;;5096260;28;20470;-64
2023/02/13 02:02:57;;;;;;;6.87;2.80;;;8.60;99.90;;;;;;5095910;28;20477;-66
2023/02/13 02:05:28;;;;;;;6.63;2.90;;;8.60;99.90;;;;;;5096258;28;20403;-64
2023/02/13 02:07:57;;;;;;;4.73;2.67;;;8.60;99.90;;;;;;5096092;28;20445;-64
2023/02/13 02:10:26;;;;;;;5.40;2.17;;;8.60;99.90;;;;;;5096440;28;20462;-65
2023/02/13 02:13:01;;;;;;;3.67;2.43;;;8.60;99.90;;;;;;5096220;28;20506;-65
2023/02/13 02:15:29;;;;;;;3.77;2.47;;;8.60;99.90;;;;;;5095303;28;20430;-63
2023/02/13 02:17:55;;;;;;;3.20;2.37;;;8.60;99.90;;;;;;5094346;28;20478;-64
2023/02/13 02:20:34;;;;;;;3.33;2.17;;;8.60;99.90;;;;;;5094813;28;20442;-64
2023/02/13 02:23:30;;;;;;;3.20;2.20;;;8.60;99.90;;;;;;5099995;28;20477;-61
2023/02/13 02:26:33;;;;;;;4.43;2.80;;;8.60;99.90;;;;;;5099232;28;20415;-61
2023/02/13 02:29:26;;;;;;;3.70;2.50;;;8.50;99.90;;;;;;5096990;28;20466;-64
2023/02/13 02:32:23;;;;;;;3.80;2.20;;;8.60;99.90;;;;;;5096362;28;20466;-67
2023/02/13 02:34:59;;;;;;;4.00;2.47;;;8.50;99.90;;;;;;5100101;28;20497;-58
2023/02/13 02:37:41;;;;;;;7.47;2.60;;;8.60;99.90;;;;;;5098943;28;20473;-63
2023/02/13 02:40:19;;;;;;;6.13;2.33;;;8.60;99.90;;;;;;5098768;28;20445;-62
2023/02/13 02:42:57;;;;;;;4.97;3.23;;;8.60;99.90;;;;;;5099013;28;20453;-61
2023/02/13 02:45:29;;;;;;;5.73;3.00;;;8.50;99.90;;;;;;5098436;28;20434;-64
2023/02/13 02:50:53;;;;;;;4.10;2.67;;;8.50;99.90;;;;;;5099271;28;20422;-63
2023/02/13 02:53:32;;;;;;;5.20;3.03;;;8.50;99.90;;;;;;5096584;28;20473;-64
2023/02/13 02:56:06;;;;;;;5.10;2.33;;;8.50;99.90;;;;;;5095367;28;20430;-65
2023/02/13 03:07:09;;;;;;;4.63;3.10;;;8.60;99.90;;;;;;5094572;28;20430;-67
2023/02/13 03:15:13;;;;;;;6.73;3.50;;;8.50;99.90;;;;;;5094840;28;20406;-66
2023/02/13 03:23:33;;;;;;;7.63;4.47;;;8.40;99.90;;;;;;5094638;28;20453;-67
2023/02/13 03:26:19;;;;;;;10.00;3.80;;;8.40;99.90;;;;;;5095477;28;20426;-64
2023/02/13 03:31:52;;;;;;;7.70;4.30;;;8.40;99.90;;;;;;5094106;28;20429;-66
2023/02/13 03:34:23;;;;;;;16.63;4.27;;;8.40;99.90;;;;;;5093897;28;20438;-67
2023/02/13 03:40:02;;;;;;;10.27;5.67;;;8.40;99.90;;;;;;5052836;28;20436;-66
2023/02/13 03:42:35;;;;;;;6.37;3.93;;;8.40;99.90;;;;;;5085954;28;20456;-64
2023/02/13 03:47:55;;;;;;;10.10;4.47;;;8.40;99.90;;;;;;5096525;28;20444;-65
2023/02/13 03:50:22;;;;;;;8.40;3.97;;;8.40;99.90;;;;;;5097063;28;20459;-65
2023/02/13 03:52:55;;;;;;;9.33;4.50;;;8.30;99.90;;;;;;5097494;28;20438;-64
2023/02/13 04:01:01;;;;;;;9.23;4.70;;;8.40;99.90;;;;;;5096284;28;20477;-66
2023/02/13 04:03:36;;;;;;;7.00;4.73;;;8.30;99.90;;;;;;5096547;28;20443;-62
2023/02/13 04:06:06;;;;;;;6.40;3.93;;;8.40;99.90;;;;;;5096393;28;20457;-65
2023/02/13 04:08:34;;;;;;;6.20;3.90;;;8.40;99.90;;;;;;5096317;28;20435;-62
2023/02/13 04:11:07;;;;;;;10.00;4.87;;;8.40;99.90;;;;;;5096355;28;20443;-63
2023/02/13 04:13:36;;;;;;;10.50;4.27;;;8.40;99.90;;;;;;5095610;28;20457;-67
2023/02/13 04:16:11;;;;;;;6.93;3.90;;;8.30;99.90;;;;;;5096326;28;20422;-65
2023/02/13 04:18:45;;;;;;;8.43;4.03;;;8.30;99.90;;;;;;5095897;28;20500;-67
2023/02/13 04:21:12;;;;;;;10.13;4.90;;;8.40;99.90;;;;;;5096229;28;20454;-64
2023/02/13 04:23:40;;;;;;;7.00;4.40;;;8.40;99.90;;;;;;5096604;28;20426;-64
2023/02/13 04:26:12;;;;;;;12.13;6.17;;;8.40;99.90;;;;;;5096197;28;20442;-68
2023/02/13 04:28:38;;;;;;;9.47;4.77;;;8.40;99.90;;;;;;5095714;28;20426;-65
2023/02/13 04:31:05;;;;;;;6.97;4.70;;;8.40;99.90;;;;;;5095466;28;20466;-62
2023/02/13 04:33:32;;;;;;;10.20;5.40;;;8.40;99.90;;;;;;5095851;28;20445;-66
2023/02/13 04:35:59;;;;;;;10.00;4.93;;;8.40;99.90;;;;;;5096262;28;20448;-65
2023/02/13 04:38:26;;;;;;;9.77;4.80;;;8.40;99.90;;;;;;5096256;28;20489;-62
2023/02/13 04:40:54;;;;;;;7.47;4.20;;;8.30;99.90;;;;;;5095739;28;20430;-64
2023/02/13 04:43:21;;;;;;;9.07;6.13;;;8.30;99.90;;;;;;5095051;28;20450;-63
2023/02/13 04:45:49;;;;;;;8.80;5.07;;;8.30;99.90;;;;;;5095496;28;20507;-61
2023/02/13 04:48:16;;;;;;;10.27;5.70;;;8.30;99.90;;;;;;5095522;28;20442;-64
2023/02/13 04:50:43;;;;;;;10.20;5.17;;;8.20;99.90;;;;;;5099769;28;20442;-67
2023/02/13 04:53:10;;;;;;;12.33;5.70;;;8.20;99.90;;;;;;5099906;28;20473;-64
2023/02/13 04:55:37;;;;;;;11.30;5.20;;;8.10;99.90;;;;;;5099827;28;20458;-66
2023/02/13 04:58:05;;;;;;;11.07;5.87;;;8.20;99.90;;;;;;5099655;28;20488;-64
2023/02/13 05:00:32;;;;;;;9.07;5.60;;;8.20;99.90;;;;;;5099718;28;20465;-64
2023/02/13 05:03:05;;;;;;;12.00;6.30;;;8.20;99.90;;;;;;5099828;28;20458;-64
2023/02/13 05:05:32;;;;;;;10.50;5.40;;;8.20;99.90;;;;;;5099124;28;20448;-65
2023/02/13 05:07:58;;;;;;;8.60;5.93;;;8.20;99.90;;;;;;5099348;28;20469;-65
2023/02/13 05:10:26;;;;;;;12.47;5.40;;;8.20;99.90;;;;;;5099459;28;20453;-64
2023/02/13 05:12:52;;;;;;;7.17;4.43;;;8.10;99.90;;;;;;5099509;28;20501;-64
2023/02/13 05:15:22;;;;;;;9.53;6.00;;;8.00;99.90;;;;;;5099329;28;20453;-67
2023/02/13 05:17:49;;;;;;;8.40;4.67;;;8.00;99.90;;;;;;5099604;28;20492;-65
2023/02/13 05:20:16;;;;;;;4.60;3.30;;;8.10;99.90;;;;;;5099191;28;20453;-64
2023/02/13 05:25:31;;;;;;;7.97;4.80;;;8.10;99.90;;;;;;5099057;28;20433;-64
2023/02/13 05:27:58;;;;;;;14.10;6.00;;;8.00;99.90;;;;;;5097456;28;20430;-62
2023/02/13 05:30:26;;;;;;;6.50;4.43;;;8.10;99.90;;;;;;5099884;28;20426;-66
2023/02/13 05:32:53;;;;;;;8.27;5.00;;;8.10;99.90;;;;;;5099061;28;20423;-66
2023/02/13 05:35:21;;;;;;;9.00;4.40;;;8.20;99.90;;;;;;5099864;28;20465;-64
2023/02/13 05:37:48;;;;;;;8.27;4.27;;;8.20;99.90;;;;;;5099909;28;20488;-62
2023/02/13 05:40:15;;;;;;;8.10;4.20;;;8.20;99.90;;;;;;5099623;28;20489;-61
2023/02/13 05:42:42;;;;;;;7.33;4.20;;;8.20;99.90;;;;;;5100054;28;20462;-61
2023/02/13 05:45:10;;;;;;;8.53;4.23;;;8.10;99.90;;;;;;5099370;28;20441;-63
2023/02/13 05:47:38;;;;;;;12.77;4.70;;;8.10;99.90;;;;;;5097914;28;20438;-65
2023/02/13 05:50:07;;;;;;;9.63;4.30;;;8.10;99.90;;;;;;5095975;28;20462;-66
2023/02/13 05:52:33;;;;;;;6.37;3.67;;;8.10;99.90;;;;;;5095799;28;20471;-62
2023/02/13 05:55:00;;;;;;;8.90;4.17;;;8.20;99.90;;;;;;5095850;28;20485;-66
2023/02/13 05:57:27;;;;;;;10.70;4.40;;;8.20;99.90;;;;;;5096900;28;20438;-60
2023/02/13 05:59:54;;;;;;;7.30;3.60;;;8.20;99.90;;;;;;5098859;28;20488;-64
2023/02/13 06:02:24;;;;;;;8.53;3.57;;;8.20;99.90;;;;;;5099067;28;20419;-64
2023/02/13 06:04:52;;;;;;;6.60;3.57;;;8.20;99.90;;;;;;5098654;28;20764;-65
2023/02/13 06:07:19;;;;;;;7.30;3.53;;;8.20;99.90;;;;;;5095010;28;20462;-64
2023/02/13 06:09:46;;;;;;;6.30;3.60;;;8.20;99.90;;;;;;5095758;28;20438;-65
2023/02/13 06:12:13;;;;;;;6.30;3.57;;;8.30;99.90;;;;;;5094787;28;20477;-67
2023/02/13 06:14:39;;;;;;;7.57;3.53;;;8.30;99.90;;;;;;5095506;28;20442;-67
2023/02/13 06:17:08;;;;;;;6.57;4.47;;;8.30;99.90;;;;;;5095303;28;20471;-64
2023/02/13 06:19:34;;;;;;;8.77;3.60;;;8.30;99.90;;;;;;5096077;28;20510;-67
2023/02/13 06:22:03;;;;;;;6.60;3.47;;;8.20;99.90;;;;;;5094353;28;20513;-65
2023/02/13 06:24:30;;;;;;;7.60;4.27;;;8.30;99.90;;;;;;5095142;28;20438;-67
2023/02/13 06:26:57;;;;;;;4.40;3.60;;;8.20;99.90;;;;;;5093594;28;20473;-68
2023/02/13 06:29:24;;;;;;;6.80;3.63;;;8.30;99.90;;;;;;5093317;28;20506;-69
2023/02/13 06:31:51;;;;;;;5.13;3.70;;;8.30;99.90;;;;;;5093907;28;20477;-68
2023/02/13 06:34:19;;;;;;;4.50;3.30;;;8.30;99.90;;;;;;5093383;28;20472;-66
2023/02/13 06:36:48;;;;;;;6.20;3.60;;;8.30;99.90;;;;;;5094009;28;20443;-66
2023/02/13 06:39:16;;;;;;;5.67;3.60;;;8.30;99.90;;;;;;5093541;28;20481;-66
2023/02/13 06:41:43;;;;;;;6.70;4.17;;;8.30;99.90;;;;;;5093846;28;20457;-65
2023/02/13 06:44:10;;;;;;;7.23;4.00;;;8.30;99.90;;;;;;5093130;28;20446;-68
2023/02/13 06:46:37;;;;;;;5.97;3.97;;;8.30;99.90;;;;;;5093682;28;20426;-65
2023/02/13 06:49:04;;;;;;;4.63;3.70;;;8.40;99.90;;;;;;5093359;28;20521;-67
2023/02/13 06:51:30;;;;;;;16.30;4.23;;;8.30;99.90;;;;;;5093275;28;20478;-66
2023/02/13 06:53:57;;;;;;;10.43;3.50;;;8.30;99.90;;;;;;5093095;28;20438;-67
2023/02/13 06:56:26;;;;;;;6.07;4.50;;;8.40;99.90;;;;;;5092876;28;20462;-66
2023/02/13 06:58:53;;;;;;;6.90;3.77;;;8.30;99.90;;;;;;5092394;28;20478;-68
2023/02/13 07:01:19;;;;;;;7.30;3.70;;;8.30;99.90;;;;;;5091136;28;20457;-66
2023/02/13 07:03:47;;;;;;;8.63;4.30;;;8.30;99.90;;;;;;5091497;28;20439;-65
2023/02/13 07:06:20;;;;;;;6.50;4.27;;;8.30;99.90;;;;;;5091649;28;20442;-67
2023/02/13 07:08:50;;;;;;;6.93;4.63;;;8.30;99.90;;;;;;5091716;28;20561;-67
2023/02/13 07:11:18;;;;;;;8.43;4.23;;;8.30;99.90;;;;;;5092606;28;20470;-65
2023/02/13 07:13:46;;;;;;;8.63;4.50;;;8.40;99.90;;;;;;5096357;28;20458;-67
2023/02/13 07:16:13;;;;;;;9.40;3.60;;;8.40;99.90;;;;;;5096911;28;20445;-67
2023/02/13 07:18:40;;;;;;;8.13;4.57;;;8.30;99.90;;;;;;5092067;28;20505;-65
2023/02/13 07:21:07;;;;;;;7.77;5.43;;;8.40;99.90;;;;;;5092911;28;20438;-66
2023/02/13 07:23:34;;;;;;;6.90;4.83;;;8.30;99.90;;;;;;5092490;28;20484;-66
2023/02/13 07:26:01;;;;;;;6.43;4.37;;;8.30;99.90;;;;;;5086578;28;20530;-67
2023/02/13 07:28:29;;;;;;;6.57;4.00;;;8.30;99.90;;;;;;5083390;28;20529;-66
2023/02/13 07:30:57;;;;;;;6.40;4.17;;;8.30;99.90;;;;;;5082870;28;20907;-66
2023/02/13 07:33:24;;;;;;;7.10;4.53;;;8.30;99.90;;;;;;5087162;28;20472;-66
2023/02/13 07:35:52;;;;;;;11.93;4.63;;;8.30;99.90;;;;;;5091504;28;20485;-68
2023/02/13 07:38:19;;;;;;;7.87;5.13;;;8.20;99.90;;;;;;5087484;28;20442;-67
2023/02/13 07:40:46;;;;;;;6.70;3.70;;;8.30;99.90;;;;;;5088831;28;20457;-66
2023/02/13 07:43:13;;;;;;;11.17;5.57;;;8.30;99.90;;;;;;5092078;28;20423;-64
2023/02/13 07:45:40;;;;;;;6.63;4.60;;;10.10;99.90;;;;;;5092704;28;20450;-62
2023/02/13 07:48:08;;;;;;;6.67;4.60;;;8.20;99.90;;;;;;5094606;28;20454;-61
2023/02/13 07:50:36;;;;;;;6.70;3.83;;;8.80;99.90;;;;;;5096024;28;20414;-63
2023/02/13 07:53:03;;;;;;;8.93;4.00;;;8.30;99.90;;;;;;5096521;28;20450;-59
2023/02/13 07:55:31;;;;;;;6.47;3.90;;;8.20;99.90;;;;;;5094197;28;20474;-61
2023/02/13 07:58:00;;;;;;;7.57;4.57;;;8.10;99.90;;;;;;5094287;28;20446;-59
2023/02/13 08:00:27;;;;;;;6.63;4.27;;;8.10;99.90;;;;;;5092906;28;20475;-63
2023/02/13 08:02:54;;;;;;;5.83;3.93;;;8.40;99.90;;;;;;5093344;28;20853;-63
2023/02/13 08:05:22;;;;;;;4.70;3.50;;;8.20;99.90;;;;;;5093892;28;20461;-59
2023/02/13 08:07:52;;;;;;;8.07;4.60;;;8.30;99.90;;;;;;5093964;28;20525;-59
2023/02/13 08:13:05;;;;;;;8.07;4.50;;;6.20;99.90;;;;;;5096864;28;20460;-62
2023/02/13 08:15:31;;;;;;;5.73;3.57;;;8.30;99.90;;;;;;5096211;28;20473;-60
2023/02/13 08:18:00;;;;;;;10.63;3.87;;;8.20;99.90;;;;;;5094351;28;20450;-62
2023/02/13 08:20:29;;;;;;;8.30;3.77;;;8.30;99.90;;;;;;5093851;28;20489;-56
2023/02/13 08:23:02;;;;;;;8.60;4.37;;;8.50;99.90;;;;;;5093719;28;20987;-60
2023/02/13 08:25:29;;;;;;;6.77;4.57;;;8.40;99.90;;;;;;5094249;28;20427;-60
2023/02/13 08:27:56;;;;;;;9.80;4.93;;;8.40;99.90;;;;;;5095140;28;20467;-62
2023/02/13 08:30:23;;;;;;;7.10;3.63;;;8.40;99.90;;;;;;5096948;28;20442;-59
2023/02/13 08:32:50;;;;;;;6.90;4.23;;;8.40;99.90;;;;;;5094153;28;20483;-60
2023/02/13 08:35:17;;;;;;;6.80;4.57;;;8.50;99.90;;;;;;5093670;28;20433;-61
2023/02/13 08:37:46;;;;;;;7.67;3.83;;;8.50;99.90;;;;;;5093744;28;20458;-60
2023/02/13 08:40:13;;;;;;;8.17;4.30;;;8.70;99.90;;;;;;5093067;28;20482;-60
2023/02/13 08:42:40;;;;;;;8.63;5.20;;;8.90;99.90;;;;;;5094182;28;20439;-58
2023/02/13 08:45:09;;;;;;;4.87;4.30;;;8.60;99.90;;;;;;5094419;28;20442;-62
2023/02/13 08:47:36;;;;;;;9.03;4.40;;;8.60;99.90;;;;;;5096497;28;20446;-60
2023/02/13 08:50:03;;;;;;;5.07;3.23;;;9.00;99.90;;;;;;5097269;28;20449;-56
2023/02/13 08:52:30;;;;;;;4.77;3.33;;;8.10;99.90;;;;;;5096697;28;20458;-58
2023/02/13 08:54:58;;;;;;;5.80;3.80;;;8.40;99.90;;;;;;5097012;28;20454;-57
2023/02/13 08:57:28;;;;;;;6.97;3.97;;;8.40;99.90;;;;;;5095957;28;20435;-61
2023/02/13 08:59:54;;;;;;;9.70;3.90;;;7.30;99.90;;;;;;5094615;28;20474;-59
2023/02/13 09:02:26;;;;;;;9.63;4.43;;;8.40;99.90;;;;;;5094757;28;20442;-59
2023/02/13 09:04:53;;;;;;;6.67;3.43;;;;;;;;;;5094987;28;20429;-58
2023/02/13 09:07:20;;;;;;;13.20;5.33;;;8.40;99.90;;;;;;5094812;28;20446;-61
2023/02/13 09:09:47;;;;;;;8.70;4.30;;;8.40;99.90;;;;;;5094846;28;20439;-61
2023/02/13 09:12:15;;;;;;;7.63;3.90;;;8.40;99.90;;;;;;5094429;28;20446;-62
2023/02/13 09:14:43;;;;;;;6.73;3.67;;;8.40;99.90;;;;;;5095743;28;20466;-60
2023/02/13 09:17:10;;;;;;;9.27;5.83;;;8.50;99.90;;;;;;5096690;28;20446;-63
2023/02/13 09:19:37;;;;;;;5.50;3.63;;;8.40;99.90;;;;;;5094635;28;20513;-61
2023/02/13 09:22:03;;;;;;;4.87;2.90;;;8.40;99.90;;;;;;5094017;28;20470;-62
2023/02/13 09:24:30;;;;;;;5.70;3.50;;;8.40;99.90;;;;;;5094478;28;20473;-59
2023/02/13 09:26:57;;;;;;;7.23;3.20;;;8.40;99.90;;;;;;5094697;28;20434;-62
2023/02/13 09:29:29;;;;;;;6.40;4.13;;;8.40;99.90;;;;;;5094123;28;20469;-62
2023/02/13 09:31:56;;;;;;;6.60;3.90;;;8.40;99.90;;;;;;5094703;28;20414;-61
2023/02/13 09:34:22;;;;;;;5.67;3.63;;;8.40;99.90;;;;;;5094107;28;20450;-61
2023/02/13 09:36:51;;;;;;;8.50;4.03;;;8.60;99.90;;;;;;5097596;28;20438;-62
2023/02/13 09:39:18;;;;;;;9.70;4.10;;;8.40;99.90;;;;;;5098244;28;20509;-62
2023/02/13 09:41:49;;;;;;;7.50;3.70;;;8.30;99.90;;;;;;5098198;28;20438;-60
2023/02/13 09:44:33;;;;;;;9.30;3.70;;;8.30;99.90;;;;;;5097896;28;20450;-62
2023/02/13 09:47:05;;;;;;;8.70;5.03;;;8.30;99.90;;;;;;5097408;28;20438;-58
2023/02/13 09:49:36;;;;;;;10.63;4.80;;;8.40;99.90;;;;;;5097906;28;20546;-59
2023/02/13 09:52:04;;;;;;;9.10;4.83;;;8.40;99.90;;;;;;5098066;28;20446;-60
2023/02/13 09:54:31;;;;;;;13.83;5.40;;;;;;;;;;5097043;28;20462;-59
2023/02/13 09:57:01;;;;;;;11.30;5.87;;;8.40;99.90;;;;;;5098292;28;20454;-58
2023/02/13 09:59:44;;;;;;;13.30;4.90;;;8.50;99.90;;;;;;5097643;28;20512;-59
2023/02/13 10:02:25;;;;;;;17.10;5.80;;;8.50;99.90;;;;;;5097756;28;20441;-61
2023/02/13 10:05:00;;;;;;;9.63;5.20;;;8.40;99.90;;;;;;5097600;28;20462;-59
2023/02/13 10:07:34;;;;;;;12.33;5.40;;;8.30;99.90;;;;;;5097816;28;20430;-62
2023/02/13 10:10:06;;;;;;;14.07;6.90;;;8.20;99.90;;;;;;5097060;28;20466;-57
2023/02/13 10:12:51;;;;;;;11.80;6.20;;;8.20;99.90;;;;;;5097264;28;20474;-61
2023/02/13 10:15:26;;;;;;;9.00;5.10;;;8.10;99.90;;;;;;5097375;28;20572;-62
2023/02/13 10:17:59;;;;;;;11.93;6.13;;;8.10;99.90;;;;;;5097723;28;20426;-61
2023/02/13 10:20:32;;;;;;;9.13;5.50;;;8.20;99.90;;;;;;5097445;28;20474;-61
2023/02/13 10:23:17;;;;;;;11.20;5.60;;;8.10;99.90;;;;;;5097127;28;20437;-60
2023/02/13 10:25:49;;;;;;;8.40;4.90;;;8.50;99.90;;;;;;5096668;28;20474;-59
2023/02/13 10:28:21;;;;;;;13.43;4.97;;;8.30;99.90;;;;;;5097173;28;20427;-62
2023/02/13 10:30:53;;;;;;;14.63;6.37;;;8.30;99.90;;;;;;5096973;28;20462;-63
2023/02/13 10:33:26;;;;;;;13.70;6.07;;;8.20;99.90;;;;;;5096993;28;20752;-61
2023/02/13 10:36:01;;;;;;;12.33;5.80;;;8.30;99.90;;;;;;5096377;28;20476;-60
2023/02/13 10:38:32;;;;;;;14.00;7.07;;;8.30;99.90;;;;;;5097354;28;20486;-59
2023/02/13 10:41:17;;;;;;;14.20;6.17;;;8.40;99.90;;;;;;5098760;28;20486;-61
2023/02/13 10:43:57;;;;;;;7.17;4.70;;;8.40;99.90;;;;;;5096748;28;20560;-62
2023/02/13 10:46:35;;;;;;;8.97;5.37;;;8.50;99.90;;;;;;5097509;28;20469;-61
2023/02/13 10:49:25;;;;;;;8.33;4.63;;;8.60;99.90;;;;;;5097178;28;20418;-59
2023/02/13 10:51:58;;;;;;;12.23;5.90;;;8.60;99.90;;;;;;5098126;28;20477;-62
2023/02/13 10:54:39;;;;;;;9.37;4.93;;;8.70;99.90;;;;;;5098027;28;20449;-58
2023/02/13 10:57:12;;;;;;;11.20;4.87;;;8.70;99.90;;;;;;5098121;28;20451;-62
2023/02/13 11:00:02;;;;;;;10.10;5.77;;;8.80;99.90;;;;;;5097870;28;20486;-62
2023/02/13 11:02:31;;;;;;;11.17;6.57;;;8.70;99.90;;;;;;5098270;28;20463;-61
2023/02/13 11:05:02;;;;;;;9.77;5.37;;;9.00;99.90;;;;;;5097844;28;20445;-61
2023/02/13 11:07:31;;;;;;;9.20;6.27;;;8.60;99.90;;;;;;5098462;28;20478;-59
2023/02/13 11:10:03;;;;;;;11.50;6.00;;;8.70;99.90;;;;;;5098298;28;20431;-61
2023/02/13 11:12:31;;;;;;;8.17;4.93;;;8.80;99.90;;;;;;5098019;28;20486;-60
2023/02/13 11:15:00;;;;;;;13.33;6.23;;;8.80;99.90;;;;;;5098349;28;20477;-60
2023/02/13 11:17:30;;;;;;;7.27;5.30;;;8.70;99.90;;;;;;5098022;28;20470;-62
2023/02/13 11:20:00;;;;;;;10.60;6.07;;;8.80;99.90;;;;;;5097717;28;20529;-61
2023/02/13 11:22:32;;;;;;;12.30;5.83;;;8.80;99.90;;;;;;5097908;28;20473;-58
2023/02/13 11:25:02;;;;;;;10.87;6.00;;;8.70;99.90;;;;;;5097977;28;20437;-60
2023/02/13 11:27:32;;;;;;;9.60;5.93;;;8.70;99.90;;;;;;5097857;28;20514;-61
2023/02/13 11:30:01;;;;;;;11.83;6.30;;;8.70;99.90;;;;;;5098141;28;20427;-63
2023/02/13 11:32:29;;;;;;;10.10;6.17;;;8.80;99.90;;;;;;5097614;28;20439;-61
2023/02/13 11:35:23;;;;;;;11.90;5.23;;;8.80;99.90;;;;;;5097521;28;20438;-58
2023/02/13 11:38:10;;;;;;;15.13;7.00;;;8.90;99.90;;;;;;5097597;28;20454;-61
2023/02/13 11:40:38;;;;;;;9.87;6.30;;;8.90;99.90;;;;;;5097296;28;20473;-63
2023/02/13 11:43:07;;;;;;;13.73;6.90;;;9.00;99.90;;;;;;5097773;28;20473;-61
2023/02/13 11:45:35;;;;;;;11.37;6.70;;;9.00;99.90;;;;;;5097669;28;20445;-61
2023/02/13 11:48:17;;;;;;;11.23;5.93;;;9.10;99.90;;;;;;5097072;28;20446;-62
2023/02/13 11:50:52;;;;;;;11.23;5.77;;;9.20;99.90;;;;;;5097743;28;20419;-59
2023/02/13 11:53:22;;;;;;;8.83;5.73;;;9.10;99.90;;;;;;5090889;28;20493;-62
2023/02/13 11:56:03;;;;;;;13.73;6.30;;;9.20;99.90;;;;;;5093257;28;20469;-62
2023/02/13 11:58:31;;;;;;;13.77;7.30;;;9.30;99.90;;;;;;5093565;28;20513;-62
2023/02/13 12:01:24;;;;;;;11.97;6.07;;;9.30;99.90;;;;;;5094334;28;20502;-63
2023/02/13 12:04:06;;;;;;;11.03;7.10;;;9.20;99.90;;;;;;5094167;28;20494;-61
2023/02/13 12:06:39;;;;;;;12.83;7.60;;;9.20;99.90;;;;;;5094152;28;20449;-61
2023/02/13 12:09:12;;;;;;;15.73;7.77;;;9.20;99.90;;;;;;5094053;28;20406;-60
2023/02/13 12:11:45;;;;;;;13.57;7.80;;;9.20;99.90;;;;;;5093345;28;20466;-58
2023/02/13 12:14:18;;;;;;;12.13;6.77;;;9.20;99.90;;;;;;5093003;28;20462;-62
2023/02/13 12:16:50;;;;;;;13.07;7.70;;;9.20;99.90;;;;;;5092992;28;20427;-59
2023/02/13 12:19:23;;;;;;;13.83;6.90;;;9.30;99.90;;;;;;5096866;28;20525;-63
2023/02/13 12:22:08;;;;;;;11.77;6.67;;;9.30;99.90;;;;;;5096891;28;20459;-61
2023/02/13 12:25:01;;;;;;;17.63;8.07;;;9.30;99.90;;;;;;5097039;28;20419;-61
2023/02/13 12:27:41;;;;;;;19.90;8.10;;;9.30;99.90;;;;;;5097713;28;20423;-61
2023/02/13 12:30:28;;;;;;;16.30;8.00;;;9.20;99.90;;;;;;5097628;28;20493;-61
2023/02/13 12:33:04;;;;;;;10.70;6.50;;;9.20;99.90;;;;;;5096788;28;20426;-61
2023/02/13 12:35:46;;;;;;;17.50;8.23;;;9.20;99.90;;;;;;5097558;28;20437;-61
2023/02/13 12:38:26;;;;;;;12.40;8.53;;;9.10;99.90;;;;;;5096544;28;20488;-58
2023/02/13 12:41:14;;;;;;;15.00;8.30;;;9.10;99.90;;;;;;5096007;28;20488;-60
2023/02/13 12:44:07;;;;;;;16.63;8.17;;;9.20;99.90;;;;;;5096153;28;20477;-62
2023/02/13 12:46:40;;;;;;;18.20;9.17;;;9.20;99.90;;;;;;5096348;28;20433;-63
2023/02/13 12:49:25;;;;;;;17.43;8.53;;;9.30;99.90;;;;;;5096429;28;20473;-57
2023/02/13 12:52:03;;;;;;;13.93;8.53;;;9.30;99.90;;;;;;5097103;28;20430;-61
2023/02/13 12:54:49;;;;;;;15.80;7.57;;;9.30;99.90;;;;;;5096865;28;20473;-61
2023/02/13 12:57:26;;;;;;;14.80;8.97;;;9.40;99.90;;;;;;5096831;28;20410;-59
2023/02/13 13:00:24;;;;;;;14.00;7.10;;;9.40;99.90;;;;;;5096231;28;20445;-59
2023/02/13 13:03:16;;;;;;;16.10;8.50;;;9.40;99.90;;;;;;5088588;28;20449;-57
2023/02/13 13:06:18;;;;;;;14.20;7.97;;;9.40;99.90;;;;;;5095936;28;20423;-62
2023/02/13 13:09:00;;;;;;;14.77;7.67;;;9.40;99.90;;;;;;5079350;28;20469;-58
2023/02/13 13:11:47;;;;;;;16.27;8.10;;;9.50;99.90;;;;;;5100121;28;20437;-60
2023/02/13 13:14:27;;;;;;;16.27;7.53;;;9.30;99.90;;;;;;5100516;28;20549;-61
2023/02/13 13:17:02;;;;;;;15.20;6.87;;;9.30;99.90;;;;;;5100415;28;20422;-62
2023/02/13 13:19:37;;;;;;;12.17;7.00;;;9.30;99.90;;;;;;5100430;28;20469;-57
2023/02/13 13:22:11;;;;;;;16.17;7.30;;;9.20;99.90;;;;;;5099855;28;20458;-58
2023/02/13 13:24:52;;;;;;;12.60;6.03;;;9.30;99.90;;;;;;5100095;28;20454;-62
2023/02/13 13:27:25;;;;;;;12.47;5.93;;;9.20;99.90;;;;;;5100031;28;20426;-63
2023/02/13 13:29:56;;;;;;;14.40;6.93;;;9.30;99.90;;;;;;5099799;28;20473;-59
2023/02/13 13:32:24;;;;;;;13.50;5.90;;;9.20;99.90;;;;;;5100599;28;20440;-60
2023/02/13 13:34:51;;;;;;;11.67;6.27;;;9.30;99.90;;;;;;5100413;28;20458;-60
2023/02/13 13:37:28;;;;;;;16.83;7.20;;;9.20;99.90;;;;;;5100183;28;20454;-62
2023/02/13 13:39:59;;;;;;;16.33;8.23;;;9.30;99.90;;;;;;5100292;28;20437;-58
2023/02/13 13:42:36;;;;;;;18.03;6.97;;;9.20;99.90;;;;;;5099735;28;20418;-62
2023/02/13 13:45:38;;;;;;;12.80;8.17;;;9.10;99.90;;;;;;5099436;28;20468;-61
2023/02/13 13:48:33;;;;;;;18.00;8.20;;;9.10;99.90;;;;;;5096889;28;20453;-61
2023/02/13 13:51:01;;;;;;;12.43;7.33;;;9.20;99.90;;;;;;5099457;28;20414;-62
2023/02/13 13:53:27;;;;;;;11.03;6.70;;;9.20;99.90;;;;;;5100077;28;20438;-58
2023/02/13 13:56:08;;;;;;;15.63;8.70;;;9.30;99.90;;;;;;5100335;28;20472;-59
2023/02/13 13:58:44;;;;;;;19.50;7.40;;;9.20;99.90;;;;;;5100649;28;20494;-61